BAW221 ESGG-EGLL
Flight info
| Callsign | BAW221 |
|---|---|
| Flight time | 1h 42m |
| Altitude | 36000 |
| Route | DETN3J DETNA N866 UPGAS DCT TIPAN DCT WECOW DCT BINBO DCT AKOKO N866 BUKUT P7 BARMI BARM1H |
| Aircraft | A319/M-SDE3FGHIRWY/LB1 |
Departure
| Time | 2026-05-05 15:40 |
|---|---|
| Airport | Göteborg Landvetter Airport (ESGG) |
Arrival
| Time | 2026-05-05 17:23 |
|---|---|
| Airport | London Heathrow Airport (EGLL) |
| Time | Latitude | Longitude | Altitude | Speed | Heading |
|---|---|---|---|---|---|
| 2026-05-05 15:24 | 57.67049 | 12.29570 | 519 ft | 0 kts | 117° |
| 2026-05-05 15:33 | 57.67050 | 12.29570 | 519 ft | 0 kts | 117° |
| 2026-05-05 15:34 | 57.67050 | 12.29569 | 519 ft | 2 kts | 117° |
| 2026-05-05 15:34 | 57.67062 | 12.29525 | 519 ft | 3 kts | 117° |
| 2026-05-05 15:34 | 57.67072 | 12.29481 | 519 ft | 3 kts | 97° |
| 2026-05-05 15:34 | 57.67064 | 12.29439 | 519 ft | 3 kts | 43° |
| 2026-05-05 15:35 | 57.67057 | 12.29430 | 519 ft | 0 kts | 26° |
| 2026-05-05 15:37 | 57.67065 | 12.29437 | 519 ft | 9 kts | 24° |
| 2026-05-05 15:37 | 57.67153 | 12.29511 | 519 ft | 16 kts | 26° |
| 2026-05-05 15:37 | 57.67231 | 12.29414 | 519 ft | 12 kts | 316° |
| 2026-05-05 15:38 | 57.67321 | 12.29436 | 517 ft | 14 kts | 22° |
| 2026-05-05 15:38 | 57.67410 | 12.29520 | 517 ft | 14 kts | 28° |
| 2026-05-05 15:38 | 57.67501 | 12.29595 | 517 ft | 14 kts | 1° |
| 2026-05-05 15:38 | 57.67561 | 12.29502 | 513 ft | 12 kts | 300° |
| 2026-05-05 15:39 | 57.67587 | 12.29351 | 511 ft | 13 kts | 267° |
| 2026-05-05 15:39 | 57.67564 | 12.29175 | 510 ft | 14 kts | 237° |
| 2026-05-05 15:39 | 57.67529 | 12.29115 | 509 ft | 0 kts | 206° |
| 2026-05-05 15:39 | 57.67410 | 12.29007 | 509 ft | 52 kts | 206° |
| 2026-05-05 15:40 | 57.66877 | 12.28519 | 509 ft | 117 kts | 206° |
| 2026-05-05 15:40 | 57.65990 | 12.27733 | 660 ft | 154 kts | 206° |
| 2026-05-05 15:40 | 57.65013 | 12.26891 | 1205 ft | 157 kts | 208° |
| 2026-05-05 15:40 | 57.64035 | 12.26013 | 1819 ft | 160 kts | 210° |
| 2026-05-05 15:41 | 57.63040 | 12.25098 | 2398 ft | 162 kts | 210° |
| 2026-05-05 15:41 | 57.61995 | 12.24130 | 2731 ft | 176 kts | 210° |
| 2026-05-05 15:41 | 57.60860 | 12.23079 | 3064 ft | 192 kts | 210° |
| 2026-05-05 15:41 | 57.59606 | 12.21921 | 3405 ft | 211 kts | 210° |
| 2026-05-05 15:42 | 57.58225 | 12.20630 | 3758 ft | 231 kts | 212° |
| 2026-05-05 15:42 | 57.56957 | 12.18787 | 4172 ft | 240 kts | 240° |
| 2026-05-05 15:42 | 57.56401 | 12.15818 | 4669 ft | 250 kts | 264° |
| 2026-05-05 15:42 | 57.56133 | 12.12608 | 5373 ft | 258 kts | 263° |
| 2026-05-05 15:43 | 57.55811 | 12.09306 | 6230 ft | 259 kts | 262° |
| 2026-05-05 15:43 | 57.55481 | 12.06060 | 7104 ft | 260 kts | 262° |
| 2026-05-05 15:43 | 57.55133 | 12.02755 | 8024 ft | 261 kts | 262° |
| 2026-05-05 15:43 | 57.54787 | 11.99512 | 8939 ft | 262 kts | 259° |
| 2026-05-05 15:44 | 57.54215 | 11.96287 | 9842 ft | 264 kts | 252° |
| 2026-05-05 15:44 | 57.53521 | 11.93152 | 10661 ft | 268 kts | 251° |
| 2026-05-05 15:44 | 57.52794 | 11.89894 | 11065 ft | 284 kts | 251° |
| 2026-05-05 15:44 | 57.52026 | 11.86423 | 11408 ft | 301 kts | 251° |
| 2026-05-05 15:45 | 57.51210 | 11.82679 | 11720 ft | 318 kts | 251° |
| 2026-05-05 15:45 | 57.50371 | 11.78802 | 12016 ft | 334 kts | 251° |
| 2026-05-05 15:45 | 57.49500 | 11.74757 | 12330 ft | 347 kts | 250° |
| 2026-05-05 15:45 | 57.48599 | 11.70591 | 12907 ft | 351 kts | 250° |
| 2026-05-05 15:46 | 57.47698 | 11.66416 | 13569 ft | 350 kts | 250° |
| 2026-05-05 15:46 | 57.46788 | 11.62196 | 14198 ft | 351 kts | 250° |
| 2026-05-05 15:46 | 57.45890 | 11.58045 | 14797 ft | 353 kts | 251° |
| 2026-05-05 15:46 | 57.44975 | 11.53809 | 15204 ft | 360 kts | 250° |
| 2026-05-05 15:47 | 57.44035 | 11.49454 | 15668 ft | 365 kts | 250° |
| 2026-05-05 15:47 | 57.43084 | 11.45073 | 16237 ft | 368 kts | 250° |
| 2026-05-05 15:47 | 57.42128 | 11.40677 | 16784 ft | 370 kts | 250° |
| 2026-05-05 15:47 | 57.41171 | 11.36280 | 17299 ft | 373 kts | 250° |
| 2026-05-05 15:48 | 57.40192 | 11.31803 | 17824 ft | 376 kts | 249° |
| 2026-05-05 15:48 | 57.39218 | 11.27352 | 18307 ft | 379 kts | 249° |
| 2026-05-05 15:48 | 57.38229 | 11.22837 | 18789 ft | 382 kts | 249° |
| 2026-05-05 15:48 | 57.37218 | 11.18232 | 19309 ft | 384 kts | 249° |
| 2026-05-05 15:49 | 57.36218 | 11.13687 | 19783 ft | 387 kts | 249° |
| 2026-05-05 15:49 | 57.35202 | 11.09081 | 20253 ft | 389 kts | 249° |
| 2026-05-05 15:49 | 57.34174 | 11.04434 | 20719 ft | 392 kts | 249° |
| 2026-05-05 15:49 | 57.33144 | 10.99792 | 21167 ft | 394 kts | 249° |
| 2026-05-05 15:50 | 57.32100 | 10.95084 | 21592 ft | 396 kts | 249° |
| 2026-05-05 15:50 | 57.31061 | 10.90412 | 21988 ft | 399 kts | 249° |
| 2026-05-05 15:50 | 57.30005 | 10.85677 | 22407 ft | 401 kts | 249° |
| 2026-05-05 15:50 | 57.28945 | 10.80935 | 22811 ft | 403 kts | 249° |
| 2026-05-05 15:51 | 57.27869 | 10.76133 | 23187 ft | 406 kts | 249° |
| 2026-05-05 15:51 | 57.26782 | 10.71297 | 23556 ft | 407 kts | 249° |
| 2026-05-05 15:51 | 57.25695 | 10.66463 | 23900 ft | 410 kts | 249° |
| 2026-05-05 15:51 | 57.24601 | 10.61613 | 24220 ft | 413 kts | 249° |
| 2026-05-05 15:52 | 57.23500 | 10.56750 | 24545 ft | 414 kts | 249° |
| 2026-05-05 15:52 | 57.22388 | 10.51842 | 24836 ft | 417 kts | 249° |
| 2026-05-05 15:52 | 57.21280 | 10.46963 | 25260 ft | 416 kts | 249° |
| 2026-05-05 15:52 | 57.20164 | 10.42057 | 25756 ft | 413 kts | 249° |
| 2026-05-05 15:53 | 57.19060 | 10.37211 | 26195 ft | 412 kts | 249° |
| 2026-05-05 15:53 | 57.17949 | 10.32352 | 26611 ft | 412 kts | 249° |
| 2026-05-05 15:53 | 57.16845 | 10.27530 | 27015 ft | 412 kts | 248° |
| 2026-05-05 15:53 | 57.15741 | 10.22722 | 27436 ft | 411 kts | 248° |
| 2026-05-05 15:54 | 57.14628 | 10.17886 | 27881 ft | 410 kts | 249° |
| 2026-05-05 15:54 | 57.13516 | 10.13073 | 28336 ft | 408 kts | 248° |
| 2026-05-05 15:54 | 57.12411 | 10.08303 | 28790 ft | 407 kts | 248° |
| 2026-05-05 15:54 | 57.11275 | 10.03557 | 29224 ft | 406 kts | 246° |
| 2026-05-05 15:55 | 57.10016 | 9.98936 | 29639 ft | 406 kts | 244° |
| 2026-05-05 15:55 | 57.08631 | 9.94431 | 30045 ft | 406 kts | 242° |
| 2026-05-05 15:55 | 57.07173 | 9.90068 | 30450 ft | 405 kts | 241° |
| 2026-05-05 15:55 | 57.05704 | 9.85664 | 30865 ft | 403 kts | 241° |
| 2026-05-05 15:56 | 57.04256 | 9.81322 | 31243 ft | 403 kts | 241° |
| 2026-05-05 15:56 | 57.02805 | 9.76984 | 31602 ft | 402 kts | 241° |
| 2026-05-05 15:56 | 57.01332 | 9.72597 | 31955 ft | 402 kts | 241° |
| 2026-05-05 15:56 | 56.99875 | 9.68266 | 32307 ft | 401 kts | 241° |
| 2026-05-05 15:57 | 56.98415 | 9.63936 | 32636 ft | 401 kts | 241° |
| 2026-05-05 15:57 | 56.96957 | 9.59621 | 32942 ft | 401 kts | 241° |
| 2026-05-05 15:57 | 56.95494 | 9.55302 | 33255 ft | 400 kts | 241° |
| 2026-05-05 15:57 | 56.94040 | 9.51016 | 33573 ft | 400 kts | 241° |
| 2026-05-05 15:58 | 56.92568 | 9.46689 | 33906 ft | 398 kts | 241° |
| 2026-05-05 15:58 | 56.91125 | 9.42451 | 34229 ft | 397 kts | 241° |
| 2026-05-05 15:58 | 56.89658 | 9.38152 | 34488 ft | 398 kts | 241° |
| 2026-05-05 15:58 | 56.88208 | 9.33912 | 34706 ft | 399 kts | 240° |
| 2026-05-05 15:59 | 56.86729 | 9.29592 | 34890 ft | 400 kts | 240° |
| 2026-05-05 15:59 | 56.85265 | 9.25324 | 35049 ft | 401 kts | 240° |
| 2026-05-05 15:59 | 56.83783 | 9.21008 | 35195 ft | 402 kts | 240° |
| 2026-05-05 15:59 | 56.82296 | 9.16690 | 35341 ft | 404 kts | 240° |
| 2026-05-05 16:00 | 56.80804 | 9.12363 | 35457 ft | 405 kts | 240° |
| 2026-05-05 16:00 | 56.79319 | 9.08067 | 35580 ft | 406 kts | 240° |
| 2026-05-05 16:00 | 56.77812 | 9.03715 | 35693 ft | 407 kts | 240° |
| 2026-05-05 16:00 | 56.76311 | 8.99394 | 35798 ft | 408 kts | 240° |
| 2026-05-05 16:01 | 56.74794 | 8.95031 | 35911 ft | 409 kts | 240° |
| 2026-05-05 16:01 | 56.71746 | 8.86285 | 35972 ft | 411 kts | 240° |
| 2026-05-05 16:02 | 56.68687 | 8.77531 | 35977 ft | 412 kts | 240° |
| 2026-05-05 16:02 | 56.65623 | 8.68800 | 35972 ft | 412 kts | 240° |
| 2026-05-05 16:03 | 56.62545 | 8.60062 | 35988 ft | 412 kts | 240° |
| 2026-05-05 16:03 | 56.59460 | 8.51339 | 35977 ft | 412 kts | 240° |
| 2026-05-05 16:04 | 56.56379 | 8.42659 | 35987 ft | 412 kts | 240° |
| 2026-05-05 16:04 | 56.53284 | 8.33973 | 35976 ft | 413 kts | 239° |
| 2026-05-05 16:05 | 56.50164 | 8.25258 | 35975 ft | 414 kts | 239° |
| 2026-05-05 16:05 | 56.47053 | 8.16529 | 35981 ft | 413 kts | 240° |
| 2026-05-05 16:06 | 56.44106 | 8.07698 | 35988 ft | 414 kts | 240° |
| 2026-05-05 16:06 | 56.41154 | 7.98838 | 35984 ft | 414 kts | 240° |
| 2026-05-05 16:07 | 56.38179 | 7.89976 | 35988 ft | 414 kts | 240° |
| 2026-05-05 16:07 | 56.35191 | 7.81124 | 35989 ft | 414 kts | 240° |
| 2026-05-05 16:08 | 56.32206 | 7.72316 | 35999 ft | 414 kts | 240° |
| 2026-05-05 16:08 | 56.29207 | 7.63505 | 35993 ft | 415 kts | 240° |
| 2026-05-05 16:09 | 56.26204 | 7.54720 | 35990 ft | 415 kts | 240° |
| 2026-05-05 16:09 | 56.23182 | 7.45911 | 35999 ft | 415 kts | 240° |
| 2026-05-05 16:10 | 56.20164 | 7.37142 | 36003 ft | 416 kts | 240° |
| 2026-05-05 16:10 | 56.17126 | 7.28348 | 36007 ft | 416 kts | 239° |
| 2026-05-05 16:11 | 56.14085 | 7.19574 | 35999 ft | 416 kts | 239° |
| 2026-05-05 16:12 | 56.07963 | 7.02009 | 36014 ft | 417 kts | 239° |
| 2026-05-05 16:13 | 56.00267 | 6.80105 | 36000 ft | 419 kts | 239° |
| 2026-05-05 16:13 | 55.97167 | 6.71340 | 36007 ft | 418 kts | 239° |
| 2026-05-05 16:14 | 55.90975 | 6.53927 | 35997 ft | 418 kts | 239° |
| 2026-05-05 16:15 | 55.84734 | 6.36496 | 36002 ft | 419 kts | 239° |
| 2026-05-05 16:16 | 55.78466 | 6.19115 | 35994 ft | 421 kts | 238° |
| 2026-05-05 16:17 | 55.73711 | 6.06012 | 35995 ft | 421 kts | 238° |
| 2026-05-05 16:18 | 55.68971 | 5.93013 | 36004 ft | 422 kts | 238° |
| 2026-05-05 16:19 | 55.64196 | 5.79989 | 35999 ft | 423 kts | 238° |
| 2026-05-05 16:19 | 55.59391 | 5.66959 | 35997 ft | 423 kts | 238° |
| 2026-05-05 16:20 | 55.52965 | 5.49640 | 35989 ft | 424 kts | 238° |
| 2026-05-05 16:22 | 55.44225 | 5.28820 | 35991 ft | 426 kts | 228° |
| 2026-05-05 16:23 | 55.35343 | 5.15076 | 35991 ft | 429 kts | 220° |
| 2026-05-05 16:23 | 55.28344 | 5.05340 | 35990 ft | 429 kts | 220° |
| 2026-05-05 16:24 | 55.23472 | 4.99324 | 35987 ft | 432 kts | 214° |
| 2026-05-05 16:25 | 55.15609 | 4.91678 | 35987 ft | 434 kts | 211° |
| 2026-05-05 16:25 | 55.07663 | 4.84180 | 35986 ft | 435 kts | 211° |
| 2026-05-05 16:26 | 54.97051 | 4.74247 | 35987 ft | 435 kts | 211° |
| 2026-05-05 16:27 | 54.91711 | 4.69275 | 35987 ft | 434 kts | 211° |
| 2026-05-05 16:27 | 54.86419 | 4.64362 | 35988 ft | 434 kts | 211° |
| 2026-05-05 16:28 | 54.81132 | 4.59466 | 35985 ft | 434 kts | 211° |
| 2026-05-05 16:28 | 54.75825 | 4.54568 | 35986 ft | 434 kts | 211° |
| 2026-05-05 16:29 | 54.70501 | 4.49668 | 35982 ft | 434 kts | 211° |
| 2026-05-05 16:29 | 54.65206 | 4.44809 | 35981 ft | 434 kts | 211° |
| 2026-05-05 16:30 | 54.59851 | 4.39913 | 35976 ft | 434 kts | 210° |
| 2026-05-05 16:30 | 54.54557 | 4.35084 | 35975 ft | 434 kts | 210° |
| 2026-05-05 16:31 | 54.49243 | 4.30255 | 35980 ft | 434 kts | 210° |
| 2026-05-05 16:31 | 54.43917 | 4.25427 | 35976 ft | 434 kts | 210° |
| 2026-05-05 16:32 | 54.38571 | 4.20596 | 35977 ft | 434 kts | 210° |
| 2026-05-05 16:32 | 54.33246 | 4.15799 | 35975 ft | 435 kts | 209° |
| 2026-05-05 16:33 | 54.27909 | 4.11008 | 35968 ft | 434 kts | 209° |
| 2026-05-05 16:33 | 54.22590 | 4.06242 | 35959 ft | 434 kts | 209° |
| 2026-05-05 16:34 | 54.17267 | 4.01486 | 35955 ft | 435 kts | 209° |
| 2026-05-05 16:34 | 54.11917 | 3.96724 | 35961 ft | 434 kts | 209° |
| 2026-05-05 16:35 | 54.06601 | 3.92003 | 35965 ft | 434 kts | 209° |
| 2026-05-05 16:35 | 54.01252 | 3.87268 | 35958 ft | 435 kts | 209° |
| 2026-05-05 16:36 | 53.95896 | 3.82542 | 35964 ft | 435 kts | 209° |
| 2026-05-05 16:36 | 53.90554 | 3.77842 | 35970 ft | 436 kts | 209° |
| 2026-05-05 16:37 | 53.85151 | 3.73101 | 35979 ft | 435 kts | 209° |
| 2026-05-05 16:37 | 53.79823 | 3.68438 | 35979 ft | 434 kts | 209° |
| 2026-05-05 16:38 | 53.74477 | 3.63772 | 35979 ft | 434 kts | 208° |
| 2026-05-05 16:38 | 53.69132 | 3.59123 | 35970 ft | 433 kts | 208° |
| 2026-05-05 16:39 | 53.63797 | 3.54495 | 35967 ft | 433 kts | 208° |
| 2026-05-05 16:39 | 53.58458 | 3.49876 | 35971 ft | 433 kts | 208° |
| 2026-05-05 16:40 | 53.53098 | 3.45253 | 35961 ft | 433 kts | 208° |
| 2026-05-05 16:40 | 53.47763 | 3.40665 | 35966 ft | 433 kts | 208° |
| 2026-05-05 16:41 | 53.42455 | 3.36113 | 35977 ft | 432 kts | 208° |
| 2026-05-05 16:41 | 53.37101 | 3.31534 | 35968 ft | 431 kts | 208° |
| 2026-05-05 16:42 | 53.31773 | 3.26990 | 35966 ft | 432 kts | 207° |
| 2026-05-05 16:42 | 53.26441 | 3.22455 | 35979 ft | 431 kts | 207° |
| 2026-05-05 16:43 | 53.21143 | 3.17963 | 35978 ft | 431 kts | 207° |
| 2026-05-05 16:43 | 53.15835 | 3.13475 | 35977 ft | 430 kts | 207° |
| 2026-05-05 16:44 | 53.10529 | 3.09000 | 35972 ft | 430 kts | 207° |
| 2026-05-05 16:44 | 53.05182 | 3.04504 | 35969 ft | 429 kts | 207° |
| 2026-05-05 16:45 | 52.99885 | 3.00061 | 35970 ft | 428 kts | 207° |
| 2026-05-05 16:45 | 52.94595 | 2.95640 | 35962 ft | 428 kts | 207° |
| 2026-05-05 16:46 | 52.89283 | 2.91214 | 35970 ft | 428 kts | 207° |
| 2026-05-05 16:46 | 52.83986 | 2.86800 | 35970 ft | 430 kts | 207° |
| 2026-05-05 16:47 | 52.78673 | 2.82393 | 35971 ft | 430 kts | 207° |
| 2026-05-05 16:47 | 52.73331 | 2.77974 | 35969 ft | 431 kts | 207° |
| 2026-05-05 16:48 | 52.67971 | 2.73551 | 35972 ft | 431 kts | 207° |
| 2026-05-05 16:48 | 52.62677 | 2.69196 | 35757 ft | 425 kts | 207° |
| 2026-05-05 16:49 | 52.60037 | 2.67029 | 35283 ft | 426 kts | 207° |
| 2026-05-05 16:49 | 52.57402 | 2.64869 | 34512 ft | 428 kts | 207° |
| 2026-05-05 16:49 | 52.54732 | 2.62684 | 33659 ft | 429 kts | 207° |
| 2026-05-05 16:49 | 52.52079 | 2.60519 | 32756 ft | 431 kts | 207° |
| 2026-05-05 16:50 | 52.49392 | 2.58326 | 31806 ft | 434 kts | 206° |
| 2026-05-05 16:50 | 52.46733 | 2.56158 | 30840 ft | 437 kts | 206° |
| 2026-05-05 16:50 | 52.44005 | 2.53937 | 29853 ft | 440 kts | 206° |
| 2026-05-05 16:50 | 52.41294 | 2.51733 | 29533 ft | 433 kts | 206° |
| 2026-05-05 16:51 | 52.36026 | 2.47029 | 29220 ft | 437 kts | 218° |
| 2026-05-05 16:51 | 52.33710 | 2.43740 | 28959 ft | 438 kts | 221° |
| 2026-05-05 16:51 | 52.31470 | 2.40476 | 28688 ft | 439 kts | 221° |
| 2026-05-05 16:52 | 52.29188 | 2.37167 | 28414 ft | 440 kts | 221° |
| 2026-05-05 16:52 | 52.26890 | 2.33868 | 28143 ft | 442 kts | 220° |
| 2026-05-05 16:52 | 52.24578 | 2.30573 | 27873 ft | 444 kts | 220° |
| 2026-05-05 16:52 | 52.22258 | 2.27285 | 27604 ft | 445 kts | 220° |
| 2026-05-05 16:53 | 52.19920 | 2.23983 | 27334 ft | 447 kts | 220° |
| 2026-05-05 16:53 | 52.17570 | 2.20673 | 27065 ft | 448 kts | 220° |
| 2026-05-05 16:53 | 52.15210 | 2.17358 | 26796 ft | 450 kts | 220° |
| 2026-05-05 16:53 | 52.12854 | 2.14052 | 26529 ft | 452 kts | 220° |
| 2026-05-05 16:54 | 52.10456 | 2.10695 | 26259 ft | 453 kts | 220° |
| 2026-05-05 16:54 | 52.08083 | 2.07377 | 25997 ft | 454 kts | 220° |
| 2026-05-05 16:54 | 52.05705 | 2.04058 | 25732 ft | 455 kts | 220° |
| 2026-05-05 16:54 | 52.03281 | 2.00679 | 25463 ft | 457 kts | 220° |
| 2026-05-05 16:55 | 52.00876 | 1.97332 | 25197 ft | 459 kts | 220° |
| 2026-05-05 16:55 | 51.98468 | 1.93987 | 24969 ft | 460 kts | 220° |
| 2026-05-05 16:55 | 51.96105 | 1.90705 | 24936 ft | 442 kts | 220° |
| 2026-05-05 16:55 | 51.93807 | 1.87517 | 24943 ft | 422 kts | 220° |
| 2026-05-05 16:56 | 51.91638 | 1.84511 | 24937 ft | 404 kts | 220° |
| 2026-05-05 16:56 | 51.89545 | 1.81613 | 24939 ft | 386 kts | 220° |
| 2026-05-05 16:56 | 51.87568 | 1.78880 | 24943 ft | 370 kts | 220° |
| 2026-05-05 16:56 | 51.85655 | 1.76239 | 24943 ft | 354 kts | 220° |
| 2026-05-05 16:57 | 51.83836 | 1.73730 | 24936 ft | 339 kts | 220° |
| 2026-05-05 16:57 | 51.82043 | 1.71260 | 24945 ft | 345 kts | 220° |
| 2026-05-05 16:57 | 51.80164 | 1.68677 | 24950 ft | 362 kts | 220° |
| 2026-05-05 16:57 | 51.78209 | 1.65996 | 24946 ft | 379 kts | 220° |
| 2026-05-05 16:58 | 51.76191 | 1.63177 | 24938 ft | 393 kts | 224° |
| 2026-05-05 16:58 | 51.74613 | 1.59610 | 24885 ft | 399 kts | 246° |
| 2026-05-05 16:58 | 51.73917 | 1.55300 | 24365 ft | 398 kts | 264° |
| 2026-05-05 16:58 | 51.73729 | 1.50860 | 23939 ft | 393 kts | 268° |
| 2026-05-05 16:59 | 51.73594 | 1.46531 | 23527 ft | 387 kts | 267° |
| 2026-05-05 16:59 | 51.73422 | 1.42253 | 23132 ft | 381 kts | 266° |
| 2026-05-05 16:59 | 51.73211 | 1.38033 | 22739 ft | 376 kts | 266° |
| 2026-05-05 16:59 | 51.72974 | 1.33878 | 22361 ft | 371 kts | 264° |
| 2026-05-05 17:00 | 51.72726 | 1.29821 | 21908 ft | 368 kts | 264° |
| 2026-05-05 17:00 | 51.72466 | 1.25732 | 21402 ft | 366 kts | 264° |
| 2026-05-05 17:00 | 51.72200 | 1.21683 | 20932 ft | 365 kts | 264° |
| 2026-05-05 17:00 | 51.71930 | 1.17625 | 20477 ft | 363 kts | 264° |
| 2026-05-05 17:01 | 51.71657 | 1.13569 | 20015 ft | 360 kts | 264° |
| 2026-05-05 17:01 | 51.71391 | 1.09636 | 19522 ft | 359 kts | 264° |
| 2026-05-05 17:01 | 51.71120 | 1.05632 | 19067 ft | 357 kts | 264° |
| 2026-05-05 17:01 | 51.70849 | 1.01655 | 18640 ft | 355 kts | 264° |
| 2026-05-05 17:02 | 51.70581 | 0.97733 | 18223 ft | 353 kts | 264° |
| 2026-05-05 17:02 | 51.70316 | 0.93868 | 17843 ft | 350 kts | 264° |
| 2026-05-05 17:02 | 51.70047 | 0.89986 | 17424 ft | 347 kts | 264° |
| 2026-05-05 17:02 | 51.69779 | 0.86128 | 16989 ft | 345 kts | 264° |
| 2026-05-05 17:03 | 51.69513 | 0.82318 | 16572 ft | 343 kts | 264° |
| 2026-05-05 17:03 | 51.69247 | 0.78539 | 16177 ft | 341 kts | 265° |
| 2026-05-05 17:03 | 51.68980 | 0.74779 | 15760 ft | 340 kts | 265° |
| 2026-05-05 17:03 | 51.68714 | 0.71011 | 15324 ft | 338 kts | 265° |
| 2026-05-05 17:04 | 51.68450 | 0.67294 | 14996 ft | 334 kts | 265° |
| 2026-05-05 17:04 | 51.68183 | 0.63561 | 14706 ft | 330 kts | 265° |
| 2026-05-05 17:04 | 51.67926 | 0.59971 | 14394 ft | 325 kts | 265° |
| 2026-05-05 17:04 | 51.67666 | 0.56376 | 14123 ft | 320 kts | 265° |
| 2026-05-05 17:05 | 51.67410 | 0.52839 | 13821 ft | 316 kts | 265° |
| 2026-05-05 17:05 | 51.67160 | 0.49403 | 13450 ft | 309 kts | 265° |
| 2026-05-05 17:05 | 51.66913 | 0.46004 | 13041 ft | 304 kts | 265° |
| 2026-05-05 17:05 | 51.66669 | 0.42668 | 12598 ft | 301 kts | 265° |
| 2026-05-05 17:06 | 51.66424 | 0.39329 | 12120 ft | 299 kts | 265° |
| 2026-05-05 17:06 | 51.66181 | 0.36041 | 11628 ft | 297 kts | 265° |
| 2026-05-05 17:06 | 51.65937 | 0.32754 | 11131 ft | 294 kts | 264° |
| 2026-05-05 17:06 | 51.65693 | 0.29504 | 10655 ft | 292 kts | 264° |
| 2026-05-05 17:07 | 51.65449 | 0.26321 | 10264 ft | 285 kts | 264° |
| 2026-05-05 17:07 | 51.65212 | 0.23221 | 9757 ft | 278 kts | 264° |
| 2026-05-05 17:07 | 51.64979 | 0.20164 | 9276 ft | 269 kts | 265° |
| 2026-05-05 17:07 | 51.64757 | 0.17228 | 8838 ft | 261 kts | 265° |
| 2026-05-05 17:08 | 51.64548 | 0.14392 | 8423 ft | 253 kts | 266° |
| 2026-05-05 17:08 | 51.64387 | 0.11606 | 7987 ft | 247 kts | 267° |
| 2026-05-05 17:08 | 51.64245 | 0.08875 | 7476 ft | 245 kts | 267° |
| 2026-05-05 17:08 | 51.64103 | 0.06159 | 7040 ft | 244 kts | 268° |
| 2026-05-05 17:09 | 51.63958 | 0.03450 | 6978 ft | 244 kts | 267° |
| 2026-05-05 17:09 | 51.63814 | 0.00764 | 6991 ft | 245 kts | 268° |
| 2026-05-05 17:09 | 51.63667 | -0.01961 | 6990 ft | 245 kts | 267° |
| 2026-05-05 17:09 | 51.63512 | -0.04719 | 6990 ft | 245 kts | 267° |
| 2026-05-05 17:10 | 51.63358 | -0.07426 | 6996 ft | 245 kts | 267° |
| 2026-05-05 17:10 | 51.63201 | -0.10153 | 6992 ft | 245 kts | 267° |
| 2026-05-05 17:10 | 51.63047 | -0.12866 | 6986 ft | 245 kts | 267° |
| 2026-05-05 17:10 | 51.62894 | -0.15600 | 6984 ft | 245 kts | 267° |
| 2026-05-05 17:11 | 51.62739 | -0.18344 | 6979 ft | 245 kts | 267° |
| 2026-05-05 17:11 | 51.62583 | -0.21035 | 6973 ft | 245 kts | 267° |
| 2026-05-05 17:11 | 51.62423 | -0.23779 | 6973 ft | 245 kts | 266° |
| 2026-05-05 17:11 | 51.62257 | -0.26521 | 6972 ft | 246 kts | 266° |
| 2026-05-05 17:12 | 51.62094 | -0.29226 | 6971 ft | 245 kts | 266° |
| 2026-05-05 17:12 | 51.61931 | -0.31977 | 6968 ft | 246 kts | 266° |
| 2026-05-05 17:12 | 51.61771 | -0.34690 | 6968 ft | 246 kts | 266° |
| 2026-05-05 17:12 | 51.61610 | -0.37415 | 6969 ft | 246 kts | 266° |
| 2026-05-05 17:13 | 51.61448 | -0.40166 | 6970 ft | 246 kts | 266° |
| 2026-05-05 17:13 | 51.61287 | -0.42909 | 6970 ft | 246 kts | 267° |
| 2026-05-05 17:13 | 51.61126 | -0.45640 | 6969 ft | 246 kts | 267° |
| 2026-05-05 17:13 | 51.60965 | -0.48371 | 6970 ft | 246 kts | 267° |
| 2026-05-05 17:14 | 51.60802 | -0.51125 | 6970 ft | 247 kts | 266° |
| 2026-05-05 17:14 | 51.60638 | -0.53864 | 6973 ft | 246 kts | 266° |
| 2026-05-05 17:14 | 51.60472 | -0.56610 | 6973 ft | 246 kts | 266° |
| 2026-05-05 17:14 | 51.60305 | -0.59348 | 6975 ft | 247 kts | 266° |
| 2026-05-05 17:15 | 51.60136 | -0.62069 | 6976 ft | 246 kts | 266° |
| 2026-05-05 17:15 | 51.59967 | -0.64785 | 6977 ft | 247 kts | 266° |
| 2026-05-05 17:15 | 51.59797 | -0.67560 | 6839 ft | 248 kts | 266° |
| 2026-05-05 17:15 | 51.59628 | -0.70276 | 6577 ft | 246 kts | 266° |
| 2026-05-05 17:16 | 51.59458 | -0.73018 | 6312 ft | 244 kts | 266° |
| 2026-05-05 17:16 | 51.59283 | -0.75696 | 5999 ft | 245 kts | 263° |
| 2026-05-05 17:16 | 51.58631 | -0.78207 | 5697 ft | 247 kts | 229° |
| 2026-05-05 17:16 | 51.57250 | -0.79745 | 5438 ft | 242 kts | 197° |
| 2026-05-05 17:17 | 51.55626 | -0.80045 | 5016 ft | 235 kts | 176° |
| 2026-05-05 17:17 | 51.54002 | -0.79839 | 4637 ft | 230 kts | 172° |
| 2026-05-05 17:17 | 51.52432 | -0.79597 | 4154 ft | 224 kts | 173° |
| 2026-05-05 17:17 | 51.50927 | -0.79381 | 3792 ft | 213 kts | 168° |
| 2026-05-05 17:18 | 51.49674 | -0.78420 | 3482 ft | 195 kts | 131° |
| 2026-05-05 17:18 | 51.48896 | -0.76716 | 3195 ft | 188 kts | 115° |
| 2026-05-05 17:18 | 51.48345 | -0.74846 | 3023 ft | 186 kts | 107° |
| 2026-05-05 17:18 | 51.47934 | -0.72881 | 3007 ft | 184 kts | 99° |
| 2026-05-05 17:19 | 51.47731 | -0.70888 | 3006 ft | 182 kts | 91° |
| 2026-05-05 17:19 | 51.47686 | -0.68916 | 2909 ft | 168 kts | 83° |
| 2026-05-05 17:19 | 51.47752 | -0.67132 | 2674 ft | 155 kts | 84° |
| 2026-05-05 17:19 | 51.47731 | -0.65473 | 2432 ft | 143 kts | 86° |
| 2026-05-05 17:20 | 51.47705 | -0.63911 | 2086 ft | 140 kts | 87° |
| 2026-05-05 17:20 | 51.47693 | -0.62361 | 1725 ft | 137 kts | 83° |
| 2026-05-05 17:20 | 51.47720 | -0.60869 | 1429 ft | 133 kts | 86° |
| 2026-05-05 17:20 | 51.47706 | -0.59396 | 1284 ft | 132 kts | 86° |
| 2026-05-05 17:21 | 51.47707 | -0.57912 | 1176 ft | 133 kts | 85° |
| 2026-05-05 17:21 | 51.47718 | -0.56440 | 1039 ft | 133 kts | 85° |
| 2026-05-05 17:21 | 51.47738 | -0.54955 | 853 ft | 132 kts | 86° |
| 2026-05-05 17:22 | 51.47728 | -0.52030 | 527 ft | 132 kts | 85° |
| 2026-05-05 17:22 | 51.47736 | -0.50561 | 354 ft | 131 kts | 87° |
| 2026-05-05 17:22 | 51.47749 | -0.49099 | 174 ft | 132 kts | 86° |
| 2026-05-05 17:22 | 51.47751 | -0.47634 | 79 ft | 125 kts | 84° |
| 2026-05-05 17:23 | 51.47758 | -0.46508 | 78 ft | 77 kts | 88° |
| 2026-05-05 17:23 | 51.47761 | -0.45866 | 78 ft | 49 kts | 90° |
| 2026-05-05 17:23 | 51.47729 | -0.45482 | 78 ft | 29 kts | 146° |
| 2026-05-05 17:23 | 51.47646 | -0.45463 | 78 ft | 0 kts | 188° |
| 2026-05-05 17:24 | 51.47636 | -0.45465 | 78 ft | 9 kts | 189° |
| 2026-05-05 17:25 | 51.47595 | -0.45611 | 78 ft | 17 kts | 268° |
| 2026-05-05 17:25 | 51.47594 | -0.45780 | 78 ft | 28 kts | 269° |
| 2026-05-05 17:25 | 51.47591 | -0.46314 | 78 ft | 33 kts | 273° |
| 2026-05-05 17:25 | 51.47591 | -0.46668 | 78 ft | 31 kts | 266° |
| 2026-05-05 17:26 | 51.47581 | -0.47004 | 78 ft | 29 kts | 269° |
| 2026-05-05 17:26 | 51.47581 | -0.47325 | 78 ft | 28 kts | 270° |
| 2026-05-05 17:26 | 51.47581 | -0.47629 | 78 ft | 26 kts | 268° |
| 2026-05-05 17:26 | 51.47578 | -0.47918 | 78 ft | 25 kts | 268° |
| 2026-05-05 17:27 | 51.47579 | -0.48200 | 78 ft | 24 kts | 271° |
| 2026-05-05 17:27 | 51.47566 | -0.48446 | 78 ft | 18 kts | 226° |
| 2026-05-05 17:27 | 51.47441 | -0.48474 | 78 ft | 19 kts | 179° |
| 2026-05-05 17:27 | 51.47367 | -0.48473 | 78 ft | 17 kts | 180° |
| 2026-05-05 17:28 | 51.47271 | -0.48511 | 78 ft | 11 kts | 255° |
| 2026-05-05 17:28 | 51.47271 | -0.48584 | 78 ft | 0 kts | 271° |